Mayo Airport
CYMA : rendu visible

Aérodrome :











RETROUVEZ-NOUS SUR...

 
LOGIN :

S'inscrire | Disclaimer

   EN    FR    IT 

 









Légende :    VFR   VFR Marginal   IFR   IFR Intensif   IFR Très Intensif
Visi : 
Plafond : 
>= 8 km
>= 3000ft
5 à 8 km
1000 à 3000 ft
1500m à 5 km
500 à 1000 ft
800 à 1500m
200 à 500 ft
< 800m
< 200 ft
Symboles :   Orages  Brouillard  Fortes neiges  Fortes précipitations  Vent > 20 kt






- Altitude de l'aérodrome : 1653 ft
- Code IATA : YMA


CYMA - Mayo

DERNIER METAR :
  • 120300Z 03003KT 010V070 15SM BKN051 M04/M05 A2967 RMK SC8 SLP087

METARs EXPIRÉS :
  • 120200Z 01006KT 15SM BKN030 OVC037 M04/M05 A2969 RMK SC5SC3 SLP092
  • 120100Z VRB02KT 20SM OVC048 M03/M05 A2969 RMK SC8 SLP093

TAF TAF CYMA
Valide du 12 à 00h jusqu'au 12 à 12h UTC


112338Z 1200/1212 VRB03KT P6SM BKN050
TEMPO 1200/1206 P6SM -SN FEW015 OVC040
FM120600 VRB03KT P6SM FEW015 SCT040
PROB30 1209/1212 BKN010 RMK NXT FCST BY 120600Z



MET'MAP, la Météo Aéronautique d'un coup d'oeil ! - Copyright ORBIFLY Décembre 2007 - Disclaimer

ORBIFLY MET'MAP TEAM :

Programmation & Développement : Alexandra Zaïnal
Sur une idée originale de : Baudouin d'Aumeries
Assistance à la programmation : Marc-Olivier Méhu
Soutien technique & logistique : Manuel Goepfert

Contact : metmap@orbifly.com




SOURCES & CREDITS :

   NOAA       Earth
Advisory